sensor_id;sensor_type;location;lat;lon;timestamp;pressure;altitude;pressure_sealevel;temperature;humidity
7480;BME280;3781;42.272;22.658;2022-08-21T00:00:22;94020.31;;;15.90;100.00
7480;BME280;3781;42.272;22.658;2022-08-21T00:02:53;93951.44;;;15.38;100.00
7480;BME280;3781;42.272;22.658;2022-08-21T00:05:22;93939.91;;;15.18;100.00
7480;BME280;3781;42.272;22.658;2022-08-21T00:07:49;94046.03;;;15.87;100.00
7480;BME280;3781;42.272;22.658;2022-08-21T00:10:16;93966.31;;;15.23;100.00
7480;BME280;3781;42.272;22.658;2022-08-21T00:12:44;93964.78;;;15.14;100.00
7480;BME280;3781;42.272;22.658;2022-08-21T00:15:13;94059.28;;;15.56;100.00
7480;BME280;3781;42.272;22.658;2022-08-21T00:17:42;93925.44;;;14.70;100.00
7480;BME280;3781;42.272;22.658;2022-08-21T00:20:10;94090.44;;;15.65;100.00
7480;BME280;3781;42.272;22.658;2022-08-21T00:22:38;94059.53;;;15.46;100.00
7480;BME280;3781;42.272;22.658;2022-08-21T00:25:05;94012.75;;;15.21;100.00
7480;BME280;3781;42.272;22.658;2022-08-21T00:27:32;94064.78;;;15.61;100.00
7480;BME280;3781;42.272;22.658;2022-08-21T00:29:59;93995.19;;;15.29;100.00
7480;BME280;3781;42.272;22.658;2022-08-21T00:32:28;94030.66;;;15.54;100.00
7480;BME280;3781;42.272;22.658;2022-08-21T00:34:56;94034.03;;;15.63;100.00
7480;BME280;3781;42.272;22.658;2022-08-21T00:37:23;93980.94;;;15.17;100.00
7480;BME280;3781;42.272;22.658;2022-08-21T00:39:50;94064.78;;;15.61;100.00
7480;BME280;3781;42.272;22.658;2022-08-21T00:42:18;94068.47;;;15.52;100.00
7480;BME280;3781;42.272;22.658;2022-08-21T00:44:47;94043.59;;;15.33;100.00
7480;BME280;3781;42.272;22.658;2022-08-21T00:47:16;94056.13;;;15.38;100.00
7480;BME280;3781;42.272;22.658;2022-08-21T00:49:43;93915.28;;;14.52;100.00
7480;BME280;3781;42.272;22.658;2022-08-21T00:52:15;93999.53;;;14.99;100.00
7480;BME280;3781;42.272;22.658;2022-08-21T00:54:44;94082.19;;;15.54;100.00
7480;BME280;3781;42.272;22.658;2022-08-21T00:57:15;94004.13;;;14.97;100.00
7480;BME280;3781;42.272;22.658;2022-08-21T00:59:45;94032.34;;;15.25;100.00
7480;BME280;3781;42.272;22.658;2022-08-21T01:02:16;93920.09;;;14.63;100.00
7480;BME280;3781;42.272;22.658;2022-08-21T01:04:43;94057.16;;;15.74;100.00
7480;BME280;3781;42.272;22.658;2022-08-21T01:07:12;94002.03;;;15.53;100.00
7480;BME280;3781;42.272;22.658;2022-08-21T01:09:39;94057.78;;;15.91;100.00
7480;BME280;3781;42.272;22.658;2022-08-21T01:12:06;94057.97;;;16.18;100.00
7480;BME280;3781;42.272;22.658;2022-08-21T01:14:34;93984.56;;;15.68;100.00
7480;BME280;3781;42.272;22.658;2022-08-21T01:17:02;94054.91;;;16.15;100.00
7480;BME280;3781;42.272;22.658;2022-08-21T01:19:29;93995.09;;;15.60;100.00
7480;BME280;3781;42.272;22.658;2022-08-21T01:21:58;93971.63;;;15.52;100.00
7480;BME280;3781;42.272;22.658;2022-08-21T01:24:26;94065.13;;;16.24;100.00
7480;BME280;3781;42.272;22.658;2022-08-21T01:26:53;93951.69;;;15.51;100.00
7480;BME280;3781;42.272;22.658;2022-08-21T01:29:28;93955.84;;;15.60;100.00
7480;BME280;3781;42.272;22.658;2022-08-21T01:31:57;94046.50;;;16.19;100.00
7480;BME280;3781;42.272;22.658;2022-08-21T01:34:25;94041.63;;;16.16;100.00
7480;BME280;3781;42.272;22.658;2022-08-21T01:36:52;94039.91;;;16.23;100.00
7480;BME280;3781;42.272;22.658;2022-08-21T01:39:20;93895.47;;;15.47;100.00
7480;BME280;3781;42.272;22.658;2022-08-21T01:41:47;94033.50;;;16.11;100.00
7480;BME280;3781;42.272;22.658;2022-08-21T01:44:14;94008.84;;;15.91;100.00
7480;BME280;3781;42.272;22.658;2022-08-21T01:46:41;93932.97;;;15.39;100.00
7480;BME280;3781;42.272;22.658;2022-08-21T01:49:07;94032.41;;;15.91;100.00
7480;BME280;3781;42.272;22.658;2022-08-21T01:51:34;94013.38;;;15.68;100.00
7480;BME280;3781;42.272;22.658;2022-08-21T01:54:01;94051.03;;;15.96;100.00
7480;BME280;3781;42.272;22.658;2022-08-21T01:56:35;94025.00;;;15.80;100.00
7480;BME280;3781;42.272;22.658;2022-08-21T01:59:03;93997.72;;;15.60;100.00
7480;BME280;3781;42.272;22.658;2022-08-21T02:01:30;93976.59;;;15.47;100.00
7480;BME280;3781;42.272;22.658;2022-08-21T02:03:56;94047.50;;;15.89;100.00
7480;BME280;3781;42.272;22.658;2022-08-21T02:06:25;93970.34;;;15.33;100.00
7480;BME280;3781;42.272;22.658;2022-08-21T02:08:52;93980.84;;;15.48;100.00
7480;BME280;3781;42.272;22.658;2022-08-21T02:11:19;93963.91;;;15.36;100.00
7480;BME280;3781;42.272;22.658;2022-08-21T02:13:48;93930.75;;;14.99;100.00
7480;BME280;3781;42.272;22.658;2022-08-21T02:16:15;93930.63;;;14.92;100.00
7480;BME280;3781;42.272;22.658;2022-08-21T02:18:42;94048.19;;;15.68;100.00
7480;BME280;3781;42.272;22.658;2022-08-21T02:21:09;93983.81;;;15.45;100.00
7480;BME280;3781;42.272;22.658;2022-08-21T02:23:36;94052.28;;;16.00;100.00
7480;BME280;3781;42.272;22.658;2022-08-21T02:26:06;93943.16;;;15.34;100.00
7480;BME280;3781;42.272;22.658;2022-08-21T02:28:34;94032.59;;;16.04;100.00
7480;BME280;3781;42.272;22.658;2022-08-21T02:31:02;94030.50;;;16.14;100.00
7480;BME280;3781;42.272;22.658;2022-08-21T02:33:30;93887.94;;;15.29;100.00
7480;BME280;3781;42.272;22.658;2022-08-21T02:35:57;94025.19;;;16.22;100.00
7480;BME280;3781;42.272;22.658;2022-08-21T02:38:27;94006.59;;;16.17;100.00
7480;BME280;3781;42.272;22.658;2022-08-21T02:40:55;93955.94;;;15.66;100.00
7480;BME280;3781;42.272;22.658;2022-08-21T02:43:24;93992.59;;;15.81;100.00
7480;BME280;3781;42.272;22.658;2022-08-21T02:45:53;94030.97;;;16.03;100.00
7480;BME280;3781;42.272;22.658;2022-08-21T02:48:23;94031.97;;;16.02;100.00
7480;BME280;3781;42.272;22.658;2022-08-21T02:50:54;94015.72;;;16.07;100.00
7480;BME280;3781;42.272;22.658;2022-08-21T02:53:21;94036.94;;;16.26;100.00
7480;BME280;3781;42.272;22.658;2022-08-21T02:55:50;94036.19;;;16.32;100.00
7480;BME280;3781;42.272;22.658;2022-08-21T02:58:23;94029.25;;;16.39;100.00
7480;BME280;3781;42.272;22.658;2022-08-21T03:00:51;94017.84;;;16.32;100.00
7480;BME280;3781;42.272;22.658;2022-08-21T03:03:18;93998.25;;;16.28;100.00
7480;BME280;3781;42.272;22.658;2022-08-21T03:05:48;94026.88;;;16.44;100.00
7480;BME280;3781;42.272;22.658;2022-08-21T03:08:15;93969.31;;;16.01;100.00
7480;BME280;3781;42.272;22.658;2022-08-21T03:10:48;94015.59;;;16.29;100.00
7480;BME280;3781;42.272;22.658;2022-08-21T03:13:16;94035.41;;;16.17;100.00
7480;BME280;3781;42.272;22.658;2022-08-21T03:15:44;94010.47;;;16.07;100.00
7480;BME280;3781;42.272;22.658;2022-08-21T03:18:11;94012.91;;;16.08;100.00
7480;BME280;3781;42.272;22.658;2022-08-21T03:20:40;93997.91;;;16.02;100.00
7480;BME280;3781;42.272;22.658;2022-08-21T03:23:09;93940.13;;;15.60;100.00
7480;BME280;3781;42.272;22.658;2022-08-21T03:25:37;93969.13;;;15.73;100.00
7480;BME280;3781;42.272;22.658;2022-08-21T03:28:07;93979.69;;;15.79;100.00
7480;BME280;3781;42.272;22.658;2022-08-21T03:30:35;94054.53;;;16.03;100.00
7480;BME280;3781;42.272;22.658;2022-08-21T03:33:02;93947.56;;;15.34;100.00
7480;BME280;3781;42.272;22.658;2022-08-21T03:35:29;94031.34;;;16.00;100.00
7480;BME280;3781;42.272;22.658;2022-08-21T03:37:56;94019.41;;;15.83;100.00
7480;BME280;3781;42.272;22.658;2022-08-21T03:40:25;94050.47;;;15.86;100.00
7480;BME280;3781;42.272;22.658;2022-08-21T03:42:51;94051.53;;;15.77;100.00
7480;BME280;3781;42.272;22.658;2022-08-21T03:45:19;93945.59;;;14.98;100.00
7480;BME280;3781;42.272;22.658;2022-08-21T03:47:54;93943.00;;;14.98;100.00
7480;BME280;3781;42.272;22.658;2022-08-21T03:50:23;94036.53;;;15.56;100.00
7480;BME280;3781;42.272;22.658;2022-08-21T03:52:50;94027.22;;;15.54;100.00
7480;BME280;3781;42.272;22.658;2022-08-21T03:55:17;94076.84;;;15.99;100.00
7480;BME280;3781;42.272;22.658;2022-08-21T03:57:46;94048.47;;;15.88;100.00
7480;BME280;3781;42.272;22.658;2022-08-21T04:00:14;93962.09;;;15.22;100.00
7480;BME280;3781;42.272;22.658;2022-08-21T04:02:42;94049.84;;;15.84;100.00
7480;BME280;3781;42.272;22.658;2022-08-21T04:05:11;94026.28;;;15.84;100.00
7480;BME280;3781;42.272;22.658;2022-08-21T04:07:38;94071.50;;;16.07;100.00
7480;BME280;3781;42.272;22.658;2022-08-21T04:10:06;93981.94;;;15.68;100.00
7480;BME280;3781;42.272;22.658;2022-08-21T04:12:34;94084.97;;;16.33;100.00
7480;BME280;3781;42.272;22.658;2022-08-21T04:15:03;94049.22;;;16.26;100.00
7480;BME280;3781;42.272;22.658;2022-08-21T04:17:30;93986.19;;;15.98;100.00
7480;BME280;3781;42.272;22.658;2022-08-21T04:19:56;93918.22;;;15.61;100.00
7480;BME280;3781;42.272;22.658;2022-08-21T04:22:24;94043.72;;;16.50;100.00
7480;BME280;3781;42.272;22.658;2022-08-21T04:24:51;93975.50;;;16.14;100.00
7480;BME280;3781;42.272;22.658;2022-08-21T04:27:17;94038.44;;;16.65;100.00
7480;BME280;3781;42.272;22.658;2022-08-21T04:29:44;94000.97;;;16.35;100.00
7480;BME280;3781;42.272;22.658;2022-08-21T04:32:12;94078.97;;;16.98;100.00
7480;BME280;3781;42.272;22.658;2022-08-21T04:34:39;94064.41;;;16.95;100.00
7480;BME280;3781;42.272;22.658;2022-08-21T04:37:06;94053.47;;;16.92;100.00
7480;BME280;3781;42.272;22.658;2022-08-21T04:39:33;94081.84;;;17.03;100.00
7480;BME280;3781;42.272;22.658;2022-08-21T04:42:00;93933.50;;;16.08;100.00
7480;BME280;3781;42.272;22.658;2022-08-21T04:44:27;94008.34;;;16.61;100.00
7480;BME280;3781;42.272;22.658;2022-08-21T04:46:53;93994.22;;;16.62;100.00
7480;BME280;3781;42.272;22.658;2022-08-21T04:49:22;94033.03;;;16.87;100.00
7480;BME280;3781;42.272;22.658;2022-08-21T04:51:49;94102.22;;;17.22;100.00
7480;BME280;3781;42.272;22.658;2022-08-21T04:54:18;94028.59;;;16.88;100.00
7480;BME280;3781;42.272;22.658;2022-08-21T04:56:47;94081.22;;;17.22;100.00
7480;BME280;3781;42.272;22.658;2022-08-21T04:59:19;94090.47;;;17.39;100.00
7480;BME280;3781;42.272;22.658;2022-08-21T05:01:46;94058.84;;;17.26;100.00
7480;BME280;3781;42.272;22.658;2022-08-21T05:04:16;94075.78;;;17.45;100.00
7480;BME280;3781;42.272;22.658;2022-08-21T05:06:46;94054.56;;;17.61;100.00
7480;BME280;3781;42.272;22.658;2022-08-21T05:09:16;94010.31;;;17.64;100.00
7480;BME280;3781;42.272;22.658;2022-08-21T05:11:44;94089.44;;;18.38;100.00
7480;BME280;3781;42.272;22.658;2022-08-21T05:14:12;94068.88;;;18.14;100.00
7480;BME280;3781;42.272;22.658;2022-08-21T05:16:39;94071.06;;;18.10;100.00
7480;BME280;3781;42.272;22.658;2022-08-21T05:19:07;94098.25;;;18.24;100.00
7480;BME280;3781;42.272;22.658;2022-08-21T05:21:37;94050.69;;;17.84;100.00
7480;BME280;3781;42.272;22.658;2022-08-21T05:24:06;94104.91;;;18.20;100.00
7480;BME280;3781;42.272;22.658;2022-08-21T05:26:33;94093.00;;;18.24;100.00
7480;BME280;3781;42.272;22.658;2022-08-21T05:28:59;94056.94;;;18.11;100.00
7480;BME280;3781;42.272;22.658;2022-08-21T05:31:26;94093.25;;;18.63;100.00
7480;BME280;3781;42.272;22.658;2022-08-21T05:33:53;94095.88;;;18.63;100.00
7480;BME280;3781;42.272;22.658;2022-08-21T05:36:20;94067.94;;;18.62;100.00
7480;BME280;3781;42.272;22.658;2022-08-21T05:38:47;94044.69;;;18.59;100.00
7480;BME280;3781;42.272;22.658;2022-08-21T05:41:16;94101.78;;;19.25;100.00
7480;BME280;3781;42.272;22.658;2022-08-21T05:43:43;94095.53;;;19.33;100.00
7480;BME280;3781;42.272;22.658;2022-08-21T05:46:09;93995.75;;;18.71;100.00
7480;BME280;3781;42.272;22.658;2022-08-21T05:48:37;94042.28;;;19.44;100.00
7480;BME280;3781;42.272;22.658;2022-08-21T05:51:05;94100.88;;;19.66;100.00
7480;BME280;3781;42.272;22.658;2022-08-21T05:53:33;94116.69;;;20.11;100.00
7480;BME280;3781;42.272;22.658;2022-08-21T05:55:59;94070.25;;;19.51;100.00
7480;BME280;3781;42.272;22.658;2022-08-21T05:58:32;94100.69;;;19.87;100.00
7480;BME280;3781;42.272;22.658;2022-08-21T06:01:00;94102.50;;;20.06;100.00
7480;BME280;3781;42.272;22.658;2022-08-21T06:03:30;94090.31;;;20.18;100.00
7480;BME280;3781;42.272;22.658;2022-08-21T06:05:58;94121.56;;;20.01;100.00
7480;BME280;3781;42.272;22.658;2022-08-21T06:08:25;94130.47;;;19.68;100.00
7480;BME280;3781;42.272;22.658;2022-08-21T06:10:54;93955.28;;;18.72;100.00
7480;BME280;3781;42.272;22.658;2022-08-21T06:13:22;93999.28;;;19.04;100.00
7480;BME280;3781;42.272;22.658;2022-08-21T06:16:01;93978.78;;;18.87;100.00
7480;BME280;3781;42.272;22.658;2022-08-21T06:18:28;93937.91;;;18.97;100.00
7480;BME280;3781;42.272;22.658;2022-08-21T06:20:55;94073.50;;;19.93;100.00
7480;BME280;3781;42.272;22.658;2022-08-21T06:23:22;94040.66;;;19.49;100.00
7480;BME280;3781;42.272;22.658;2022-08-21T06:25:54;94105.53;;;19.77;100.00
7480;BME280;3781;42.272;22.658;2022-08-21T06:28:21;94032.69;;;19.23;100.00
7480;BME280;3781;42.272;22.658;2022-08-21T06:30:51;94014.50;;;19.28;100.00
7480;BME280;3781;42.272;22.658;2022-08-21T06:33:17;94094.41;;;19.75;100.00
7480;BME280;3781;42.272;22.658;2022-08-21T06:35:44;94000.69;;;19.00;100.00
7480;BME280;3781;42.272;22.658;2022-08-21T06:38:11;93991.38;;;19.17;100.00
7480;BME280;3781;42.272;22.658;2022-08-21T06:40:39;94025.06;;;19.54;100.00
7480;BME280;3781;42.272;22.658;2022-08-21T06:43:11;94027.25;;;20.03;100.00
7480;BME280;3781;42.272;22.658;2022-08-21T06:45:42;94015.25;;;20.14;100.00
7480;BME280;3781;42.272;22.658;2022-08-21T06:48:10;94054.94;;;20.58;100.00
7480;BME280;3781;42.272;22.658;2022-08-21T06:50:37;94037.91;;;20.61;100.00
7480;BME280;3781;42.272;22.658;2022-08-21T06:53:06;93983.06;;;20.69;100.00
7480;BME280;3781;42.272;22.658;2022-08-21T06:55:33;94072.66;;;21.71;100.00
7480;BME280;3781;42.272;22.658;2022-08-21T06:58:01;93944.88;;;21.34;100.00
7480;BME280;3781;42.272;22.658;2022-08-21T07:00:28;94045.63;;;22.00;100.00
7480;BME280;3781;42.272;22.658;2022-08-21T07:02:56;93996.66;;;22.52;100.00
7480;BME280;3781;42.272;22.658;2022-08-21T07:05:27;94070.22;;;23.34;100.00
7480;BME280;3781;42.272;22.658;2022-08-21T07:07:54;93988.09;;;22.86;96.58
7480;BME280;3781;42.272;22.658;2022-08-21T07:10:22;94102.88;;;24.29;91.50
7480;BME280;3781;42.272;22.658;2022-08-21T07:12:49;94029.19;;;23.78;90.32
7480;BME280;3781;42.272;22.658;2022-08-21T07:15:16;94074.91;;;23.50;97.35
7480;BME280;3781;42.272;22.658;2022-08-21T07:17:43;93997.19;;;22.79;93.12
7480;BME280;3781;42.272;22.658;2022-08-21T07:20:10;93968.88;;;22.91;96.45
7480;BME280;3781;42.272;22.658;2022-08-21T07:22:39;94040.63;;;23.19;99.93
7480;BME280;3781;42.272;22.658;2022-08-21T07:25:07;94068.28;;;23.23;97.76
7480;BME280;3781;42.272;22.658;2022-08-21T07:27:35;93970.16;;;22.88;95.41
7480;BME280;3781;42.272;22.658;2022-08-21T07:30:03;94057.09;;;23.39;93.27
7480;BME280;3781;42.272;22.658;2022-08-21T07:32:31;94039.38;;;23.51;93.65
7480;BME280;3781;42.272;22.658;2022-08-21T07:34:57;93975.34;;;23.77;91.89
7480;BME280;3781;42.272;22.658;2022-08-21T07:37:25;93980.88;;;23.99;91.88
7480;BME280;3781;42.272;22.658;2022-08-21T07:39:53;94102.19;;;25.42;75.92
7480;BME280;3781;42.272;22.658;2022-08-21T07:42:20;93991.78;;;24.84;79.46
7480;BME280;3781;42.272;22.658;2022-08-21T07:44:47;94054.25;;;24.86;80.24
7480;BME280;3781;42.272;22.658;2022-08-21T07:47:14;93959.44;;;24.35;76.25
7480;BME280;3781;42.272;22.658;2022-08-21T07:49:41;93960.94;;;23.62;81.44
7480;BME280;3781;42.272;22.658;2022-08-21T07:52:08;94063.16;;;24.11;85.94
7480;BME280;3781;42.272;22.658;2022-08-21T07:54:34;93981.31;;;23.50;87.67
7480;BME280;3781;42.272;22.658;2022-08-21T07:57:03;94055.56;;;24.26;83.27
7480;BME280;3781;42.272;22.658;2022-08-21T07:59:30;93988.06;;;24.22;83.38
7480;BME280;3781;42.272;22.658;2022-08-21T08:01:57;94016.34;;;24.16;81.49
7480;BME280;3781;42.272;22.658;2022-08-21T08:04:24;94050.38;;;23.66;84.79
7480;BME280;3781;42.272;22.658;2022-08-21T08:06:51;94001.72;;;22.90;85.54
7480;BME280;3781;42.272;22.658;2022-08-21T08:09:18;94037.88;;;23.44;93.10
7480;BME280;3781;42.272;22.658;2022-08-21T08:11:45;93980.53;;;22.90;90.37
7480;BME280;3781;42.272;22.658;2022-08-21T08:14:14;94004.00;;;23.16;89.88
7480;BME280;3781;42.272;22.658;2022-08-21T08:16:41;94057.25;;;23.85;83.10
7480;BME280;3781;42.272;22.658;2022-08-21T08:19:08;94010.94;;;24.23;81.66
7480;BME280;3781;42.272;22.658;2022-08-21T08:21:35;94097.41;;;24.01;83.46
7480;BME280;3781;42.272;22.658;2022-08-21T08:24:03;94077.94;;;24.88;77.79
7480;BME280;3781;42.272;22.658;2022-08-21T08:26:31;94088.91;;;25.87;78.20
7480;BME280;3781;42.272;22.658;2022-08-21T08:28:58;94057.31;;;26.41;69.44
7480;BME280;3781;42.272;22.658;2022-08-21T08:31:26;94005.50;;;26.48;66.29
7480;BME280;3781;42.272;22.658;2022-08-21T08:33:53;94084.31;;;27.42;62.60
7480;BME280;3781;42.272;22.658;2022-08-21T08:36:32;93981.34;;;26.33;63.22
7480;BME280;3781;42.272;22.658;2022-08-21T08:39:00;94079.06;;;27.31;63.61
7480;BME280;3781;42.272;22.658;2022-08-21T08:41:27;94057.63;;;27.21;61.54
7480;BME280;3781;42.272;22.658;2022-08-21T08:44:04;94000.81;;;26.55;60.03
7480;BME280;3781;42.272;22.658;2022-08-21T08:46:37;94000.53;;;25.69;61.92
7480;BME280;3781;42.272;22.658;2022-08-21T08:49:09;93922.63;;;24.67;65.83
7480;BME280;3781;42.272;22.658;2022-08-21T08:51:43;94061.78;;;25.17;67.52
7480;BME280;3781;42.272;22.658;2022-08-21T08:54:17;93994.91;;;24.69;66.60
7480;BME280;3781;42.272;22.658;2022-08-21T08:56:46;93963.69;;;25.61;64.58
7480;BME280;3781;42.272;22.658;2022-08-21T08:59:17;93923.75;;;27.45;59.51
7480;BME280;3781;42.272;22.658;2022-08-21T09:01:47;94055.06;;;29.36;52.74
7480;BME280;3781;42.272;22.658;2022-08-21T09:04:20;94000.03;;;30.56;48.04
7480;BME280;3781;42.272;22.658;2022-08-21T09:07:06;94061.69;;;30.21;49.87
7480;BME280;3781;42.272;22.658;2022-08-21T09:09:48;94017.91;;;29.50;50.53
7480;BME280;3781;42.272;22.658;2022-08-21T09:12:28;93983.75;;;30.12;50.21
7480;BME280;3781;42.272;22.658;2022-08-21T09:15:03;94031.72;;;28.60;54.57
7480;BME280;3781;42.272;22.658;2022-08-21T09:17:42;93949.38;;;27.46;56.83
7480;BME280;3781;42.272;22.658;2022-08-21T09:20:20;93993.44;;;26.07;61.27
7480;BME280;3781;42.272;22.658;2022-08-21T09:23:00;94000.06;;;26.22;62.31
7480;BME280;3781;42.272;22.658;2022-08-21T09:25:37;93930.59;;;26.45;60.52
7480;BME280;3781;42.272;22.658;2022-08-21T09:28:08;93922.94;;;25.10;65.79
7480;BME280;3781;42.272;22.658;2022-08-21T09:30:39;94004.72;;;25.65;73.03
7480;BME280;3781;42.272;22.658;2022-08-21T09:33:09;93931.03;;;25.98;66.32
7480;BME280;3781;42.272;22.658;2022-08-21T09:35:36;93895.56;;;25.93;64.90
7480;BME280;3781;42.272;22.658;2022-08-21T09:38:05;93954.72;;;26.33;63.26
7480;BME280;3781;42.272;22.658;2022-08-21T09:40:37;93996.94;;;27.86;62.75
7480;BME280;3781;42.272;22.658;2022-08-21T09:43:07;93877.41;;;29.32;53.14
7480;BME280;3781;42.272;22.658;2022-08-21T09:45:43;93884.75;;;30.61;46.90
7480;BME280;3781;42.272;22.658;2022-08-21T09:48:14;93990.03;;;31.94;42.61
7480;BME280;3781;42.272;22.658;2022-08-21T09:50:44;93970.59;;;30.21;47.15
7480;BME280;3781;42.272;22.658;2022-08-21T09:53:17;93909.75;;;29.05;50.54
7480;BME280;3781;42.272;22.658;2022-08-21T09:55:51;93870.72;;;28.38;50.86
7480;BME280;3781;42.272;22.658;2022-08-21T09:58:37;93979.66;;;28.30;55.21
7480;BME280;3781;42.272;22.658;2022-08-21T10:01:06;93880.94;;;27.04;56.82
7480;BME280;3781;42.272;22.658;2022-08-21T10:03:34;93922.06;;;26.64;58.01
7480;BME280;3781;42.272;22.658;2022-08-21T10:06:03;93865.22;;;26.10;55.91
7480;BME280;3781;42.272;22.658;2022-08-21T10:08:34;93896.97;;;25.79;55.34
7480;BME280;3781;42.272;22.658;2022-08-21T10:11:05;93928.28;;;26.10;57.35
7480;BME280;3781;42.272;22.658;2022-08-21T10:13:43;93897.34;;;24.76;61.21
7480;BME280;3781;42.272;22.658;2022-08-21T10:16:24;93947.41;;;25.12;70.45
7480;BME280;3781;42.272;22.658;2022-08-21T10:19:08;93896.59;;;24.92;66.85
7480;BME280;3781;42.272;22.658;2022-08-21T10:21:45;93898.28;;;24.98;69.96
7480;BME280;3781;42.272;22.658;2022-08-21T10:24:24;93906.97;;;24.94;71.03
7480;BME280;3781;42.272;22.658;2022-08-21T10:27:03;93835.53;;;24.24;72.11
7480;BME280;3781;42.272;22.658;2022-08-21T10:29:44;93864.19;;;24.11;71.81
7480;BME280;3781;42.272;22.658;2022-08-21T10:32:33;93876.66;;;24.38;71.08
7480;BME280;3781;42.272;22.658;2022-08-21T10:35:12;93741.97;;;23.77;69.90
7480;BME280;3781;42.272;22.658;2022-08-21T10:40:50;93933.78;;;24.92;68.66
7480;BME280;3781;42.272;22.658;2022-08-21T10:43:31;93930.91;;;24.82;71.64
7480;BME280;3781;42.272;22.658;2022-08-21T10:46:15;93885.84;;;24.08;79.15
7480;BME280;3781;42.272;22.658;2022-08-21T10:48:47;93863.63;;;23.85;75.21
7480;BME280;3781;42.272;22.658;2022-08-21T10:51:31;93823.22;;;23.95;79.82
7480;BME280;3781;42.272;22.658;2022-08-21T10:54:13;93784.59;;;24.11;76.22
7480;BME280;3781;42.272;22.658;2022-08-21T10:56:43;93912.13;;;25.00;82.61
7480;BME280;3781;42.272;22.658;2022-08-21T10:59:24;93920.06;;;25.28;85.25
7480;BME280;3781;42.272;22.658;2022-08-21T11:01:57;93936.47;;;25.70;77.83
7480;BME280;3781;42.272;22.658;2022-08-21T11:04:30;93919.31;;;25.45;74.32
7480;BME280;3781;42.272;22.658;2022-08-21T11:07:04;93923.28;;;25.14;83.23
7480;BME280;3781;42.272;22.658;2022-08-21T11:09:32;93843.31;;;24.70;82.98
7480;BME280;3781;42.272;22.658;2022-08-21T11:12:05;93913.31;;;25.54;80.21
7480;BME280;3781;42.272;22.658;2022-08-21T11:14:38;93925.91;;;25.59;76.85
7480;BME280;3781;42.272;22.658;2022-08-21T11:17:09;93871.97;;;26.18;73.49
7480;BME280;3781;42.272;22.658;2022-08-21T11:19:45;93850.09;;;27.08;64.89
7480;BME280;3781;42.272;22.658;2022-08-21T11:22:21;93862.88;;;28.83;57.84
7480;BME280;3781;42.272;22.658;2022-08-21T11:24:57;93754.38;;;29.42;51.69
7480;BME280;3781;42.272;22.658;2022-08-21T11:27:36;93779.78;;;30.39;51.56
7480;BME280;3781;42.272;22.658;2022-08-21T11:30:08;93839.00;;;30.96;48.64
7480;BME280;3781;42.272;22.658;2022-08-21T11:33:01;93883.78;;;31.45;49.83
7480;BME280;3781;42.272;22.658;2022-08-21T11:35:36;93771.53;;;30.79;50.84
7480;BME280;3781;42.272;22.658;2022-08-21T11:38:26;93822.63;;;30.49;52.90
7480;BME280;3781;42.272;22.658;2022-08-21T11:41:03;93774.59;;;29.89;53.01
7480;BME280;3781;42.272;22.658;2022-08-21T11:43:38;93836.22;;;29.23;53.08
7480;BME280;3781;42.272;22.658;2022-08-21T11:46:16;93750.47;;;27.60;57.31
7480;BME280;3781;42.272;22.658;2022-08-21T11:48:58;93794.97;;;26.86;58.53
7480;BME280;3781;42.272;22.658;2022-08-21T11:51:31;93762.66;;;26.03;62.08
7480;BME280;3781;42.272;22.658;2022-08-21T11:54:05;93758.00;;;25.33;68.28
7480;BME280;3781;42.272;22.658;2022-08-21T11:56:36;93775.06;;;25.37;65.57
7480;BME280;3781;42.272;22.658;2022-08-21T11:59:13;93722.91;;;25.15;64.90
7480;BME280;3781;42.272;22.658;2022-08-21T12:01:47;93743.13;;;24.99;64.55
7480;BME280;3781;42.272;22.658;2022-08-21T12:04:26;93846.28;;;25.35;68.80
7480;BME280;3781;42.272;22.658;2022-08-21T12:06:54;93852.91;;;25.16;78.05
7480;BME280;3781;42.272;22.658;2022-08-21T12:09:34;93903.19;;;25.06;93.40
7480;BME280;3781;42.272;22.658;2022-08-21T12:12:05;93913.31;;;24.25;100.00
7480;BME280;3781;42.272;22.658;2022-08-21T12:14:40;93826.88;;;22.67;100.00
7480;BME280;3781;42.272;22.658;2022-08-21T12:17:08;93857.88;;;22.18;100.00
7480;BME280;3781;42.272;22.658;2022-08-21T12:19:35;93785.59;;;21.34;100.00
7480;BME280;3781;42.272;22.658;2022-08-21T12:22:11;93789.41;;;21.20;100.00
7480;BME280;3781;42.272;22.658;2022-08-21T12:24:42;93874.28;;;21.66;100.00
7480;BME280;3781;42.272;22.658;2022-08-21T12:27:19;93857.16;;;21.68;100.00
7480;BME280;3781;42.272;22.658;2022-08-21T12:30:00;93825.69;;;21.67;100.00
7480;BME280;3781;42.272;22.658;2022-08-21T12:32:30;93750.59;;;21.38;100.00
7480;BME280;3781;42.272;22.658;2022-08-21T12:35:02;93839.56;;;22.76;100.00
7480;BME280;3781;42.272;22.658;2022-08-21T12:37:37;93817.22;;;23.48;100.00
7480;BME280;3781;42.272;22.658;2022-08-21T12:40:17;93798.47;;;23.89;100.00
7480;BME280;3781;42.272;22.658;2022-08-21T12:42:49;93873.88;;;23.47;100.00
7480;BME280;3781;42.272;22.658;2022-08-21T12:45:20;93853.72;;;22.70;100.00
7480;BME280;3781;42.272;22.658;2022-08-21T12:47:54;93892.94;;;22.62;100.00
7480;BME280;3781;42.272;22.658;2022-08-21T12:50:29;93760.94;;;21.94;100.00
7480;BME280;3781;42.272;22.658;2022-08-21T12:53:04;93827.94;;;22.47;100.00
7480;BME280;3781;42.272;22.658;2022-08-21T12:55:33;93881.16;;;22.99;100.00
7480;BME280;3781;42.272;22.658;2022-08-21T12:58:01;93887.19;;;23.06;100.00
7480;BME280;3781;42.272;22.658;2022-08-21T13:00:29;93891.69;;;23.17;100.00
7480;BME280;3781;42.272;22.658;2022-08-21T13:02:56;93867.81;;;22.94;100.00
7480;BME280;3781;42.272;22.658;2022-08-21T13:05:29;93865.94;;;22.83;100.00
7480;BME280;3781;42.272;22.658;2022-08-21T13:07:57;93824.72;;;22.45;100.00
7480;BME280;3781;42.272;22.658;2022-08-21T13:10:28;93890.88;;;23.16;100.00
7480;BME280;3781;42.272;22.658;2022-08-21T13:12:58;93881.84;;;23.36;100.00
7480;BME280;3781;42.272;22.658;2022-08-21T13:15:29;93877.81;;;23.33;100.00
7480;BME280;3781;42.272;22.658;2022-08-21T13:17:57;93876.78;;;23.46;100.00
7480;BME280;3781;42.272;22.658;2022-08-21T13:20:30;93862.16;;;23.43;100.00
7480;BME280;3781;42.272;22.658;2022-08-21T13:22:58;93863.19;;;23.42;100.00